createdAt,value
2023-05-21T00:00:08.469Z,18.68
2023-05-21T00:02:40.168Z,18.68
2023-05-21T00:05:13.765Z,18.70
2023-05-21T00:07:41.756Z,18.71
2023-05-21T00:10:09.214Z,18.67
2023-05-21T00:12:36.245Z,18.64
2023-05-21T00:15:03.483Z,18.66
2023-05-21T00:17:31.580Z,18.67
2023-05-21T00:19:59.047Z,18.64
2023-05-21T00:22:26.074Z,18.62
2023-05-21T00:24:52.978Z,18.59
2023-05-21T00:27:19.979Z,18.58
2023-05-21T00:29:46.920Z,18.55
2023-05-21T00:32:13.971Z,18.52
2023-05-21T00:34:41.721Z,18.50
2023-05-21T00:37:10.193Z,18.48
2023-05-21T00:39:37.272Z,18.45
2023-05-21T00:42:04.593Z,18.45
2023-05-21T00:44:34.579Z,18.47
2023-05-21T00:47:02.697Z,18.46
2023-05-21T00:49:30.917Z,18.45
2023-05-21T00:51:58.087Z,18.50
2023-05-21T00:54:25.271Z,18.51
2023-05-21T00:56:52.408Z,18.53
2023-05-21T00:59:19.665Z,18.52
2023-05-21T01:01:46.746Z,18.55
2023-05-21T01:04:13.996Z,18.56
2023-05-21T01:06:40.909Z,18.53
2023-05-21T01:09:09.473Z,18.58
2023-05-21T01:11:43.718Z,18.60
2023-05-21T01:14:13.012Z,18.54
2023-05-21T01:16:42.546Z,18.53
2023-05-21T01:19:14.376Z,18.48
2023-05-21T01:21:45.492Z,18.46
2023-05-21T01:24:12.437Z,18.44
2023-05-21T01:26:41.474Z,18.43
2023-05-21T01:29:13.491Z,18.42
2023-05-21T01:32:07.393Z,18.37
2023-05-21T01:35:13.474Z,18.38
2023-05-21T01:38:05.139Z,18.35
2023-05-21T01:40:38.585Z,18.33
2023-05-21T01:43:07.393Z,18.33
2023-05-21T01:45:39.086Z,18.27
2023-05-21T01:48:08.095Z,18.24
2023-05-21T01:50:37.295Z,18.24
2023-05-21T01:53:06.087Z,18.21
2023-05-21T01:55:33.612Z,18.19
2023-05-21T01:58:02.489Z,18.16
2023-05-21T02:00:31.119Z,18.14
2023-05-21T02:02:59.015Z,18.13
2023-05-21T02:05:26.386Z,18.10
2023-05-21T02:07:55.140Z,18.09
2023-05-21T02:10:22.928Z,18.07
2023-05-21T02:12:49.952Z,18.07
2023-05-21T02:15:18.294Z,18.05
2023-05-21T02:17:46.784Z,18.02
2023-05-21T02:20:14.737Z,18.02
2023-05-21T02:22:48.086Z,17.98
2023-05-21T02:25:18.516Z,17.97
2023-05-21T02:27:47.129Z,17.97
2023-05-21T02:30:15.816Z,17.98
2023-05-21T02:32:43.828Z,17.98
2023-05-21T02:35:12.729Z,17.97
2023-05-21T02:37:40.806Z,17.98
2023-05-21T02:40:10.349Z,17.96
2023-05-21T02:42:40.267Z,17.94
2023-05-21T02:45:10.446Z,17.94
2023-05-21T02:47:39.381Z,17.90
2023-05-21T02:50:09.193Z,17.94
2023-05-21T02:52:43.457Z,17.92
2023-05-21T02:55:10.779Z,17.90
2023-05-21T02:57:37.801Z,17.89
2023-05-21T03:00:09.029Z,17.88
2023-05-21T03:02:38.696Z,17.86
2023-05-21T03:05:06.716Z,17.84
2023-05-21T03:07:34.166Z,17.78
2023-05-21T03:10:01.724Z,17.75
2023-05-21T03:12:29.974Z,17.75
2023-05-21T03:14:57.033Z,17.75
2023-05-21T03:17:24.149Z,17.72
2023-05-21T03:19:51.440Z,17.68
2023-05-21T03:22:20.232Z,17.66
2023-05-21T03:24:47.279Z,17.68
2023-05-21T03:27:14.939Z,17.69
2023-05-21T03:29:44.848Z,17.66
2023-05-21T03:32:13.656Z,17.67
2023-05-21T03:34:41.423Z,17.67
2023-05-21T03:37:08.480Z,17.65
2023-05-21T03:39:35.515Z,17.62
2023-05-21T03:42:03.252Z,17.63
2023-05-21T03:44:40.352Z,17.57
2023-05-21T03:47:39.365Z,17.57
2023-05-21T03:50:09.674Z,17.56
2023-05-21T03:52:37.161Z,17.57
2023-05-21T03:55:05.192Z,17.56
2023-05-21T03:57:32.242Z,17.57
2023-05-21T03:59:59.581Z,17.63
2023-05-21T04:02:27.649Z,17.66
2023-05-21T04:04:56.241Z,17.66
2023-05-21T04:07:24.842Z,17.68
2023-05-21T04:09:51.890Z,17.70
2023-05-21T04:12:20.479Z,17.71
2023-05-21T04:14:48.170Z,17.70
2023-05-21T04:17:15.276Z,17.70
2023-05-21T04:19:42.255Z,17.71
2023-05-21T04:22:12.277Z,17.76
2023-05-21T04:24:39.634Z,17.79
2023-05-21T04:27:27.848Z,17.85
2023-05-21T04:29:55.000Z,17.91
2023-05-21T04:32:24.453Z,17.93
2023-05-21T04:34:51.439Z,17.96
2023-05-21T04:37:18.684Z,18.06
2023-05-21T04:39:47.110Z,18.14
2023-05-21T04:42:14.467Z,18.22
2023-05-21T04:44:44.729Z,18.28
2023-05-21T04:47:15.115Z,18.35
2023-05-21T04:49:42.492Z,18.41
2023-05-21T04:52:09.448Z,18.47
2023-05-21T04:54:39.138Z,18.59
2023-05-21T04:57:06.787Z,18.66
2023-05-21T04:59:35.318Z,18.75
2023-05-21T05:02:02.388Z,18.82
2023-05-21T05:04:29.561Z,18.85
2023-05-21T05:06:56.734Z,18.86
2023-05-21T05:09:25.436Z,18.88
2023-05-21T05:11:53.058Z,18.88
2023-05-21T05:14:20.177Z,18.91
2023-05-21T05:16:48.493Z,19.01
2023-05-21T05:19:16.497Z,19.10
2023-05-21T05:21:44.677Z,19.18
2023-05-21T05:24:12.257Z,19.25
2023-05-21T05:26:39.192Z,19.30
2023-05-21T05:29:06.228Z,19.34
2023-05-21T05:31:33.746Z,19.38
2023-05-21T05:34:01.167Z,19.43
2023-05-21T05:36:29.906Z,19.43
2023-05-21T05:38:57.193Z,19.46
2023-05-21T05:41:25.295Z,19.55
2023-05-21T05:43:53.643Z,19.57
2023-05-21T05:46:22.494Z,19.65
2023-05-21T05:48:51.128Z,19.69
2023-05-21T05:51:18.485Z,19.74
2023-05-21T05:53:47.965Z,19.83
2023-05-21T05:56:17.335Z,19.92
2023-05-21T05:58:45.439Z,20.03
2023-05-21T06:01:15.684Z,20.13
2023-05-21T06:03:42.782Z,20.21
2023-05-21T06:06:15.512Z,20.24
2023-05-21T06:08:42.958Z,20.28
2023-05-21T06:11:11.553Z,20.39
2023-05-21T06:13:39.343Z,20.38
2023-05-21T06:16:07.869Z,20.44
2023-05-21T06:18:36.681Z,20.42
2023-05-21T06:21:04.537Z,20.50
2023-05-21T06:23:32.895Z,20.57
2023-05-21T06:26:02.541Z,20.63
2023-05-21T06:28:29.887Z,20.81
2023-05-21T06:30:58.299Z,20.89
2023-05-21T06:33:27.786Z,21.00
2023-05-21T06:35:56.256Z,21.13
2023-05-21T06:38:24.754Z,21.23
2023-05-21T06:40:53.234Z,21.30
2023-05-21T06:43:38.314Z,21.40
2023-05-21T06:46:24.454Z,21.39
2023-05-21T06:48:53.052Z,21.44
2023-05-21T06:51:21.031Z,21.52
2023-05-21T06:53:48.579Z,21.58
2023-05-21T06:56:17.131Z,21.64
2023-05-21T06:58:44.520Z,21.67
2023-05-21T07:01:12.257Z,21.80
2023-05-21T07:03:39.636Z,21.84
2023-05-21T07:06:08.545Z,21.93
2023-05-21T07:08:35.507Z,21.91
2023-05-21T07:11:03.785Z,21.92
2023-05-21T07:13:31.501Z,21.97
2023-05-21T07:15:58.847Z,22.04
2023-05-21T07:18:26.963Z,22.10
2023-05-21T07:20:54.557Z,22.22
2023-05-21T07:23:21.775Z,22.27
2023-05-21T07:25:48.804Z,22.26
2023-05-21T07:28:15.946Z,22.31
2023-05-21T07:30:43.999Z,22.41
2023-05-21T07:33:14.841Z,22.50
2023-05-21T07:35:42.478Z,22.53
2023-05-21T07:38:09.843Z,22.58
2023-05-21T07:40:38.309Z,22.74
2023-05-21T07:43:06.076Z,22.91
2023-05-21T07:45:35.037Z,23.05
2023-05-21T07:48:03.054Z,23.14
2023-05-21T07:50:32.777Z,23.25
2023-05-21T07:53:00.270Z,23.32
2023-05-21T07:55:27.556Z,23.42
2023-05-21T07:57:55.112Z,23.64
2023-05-21T08:00:28.848Z,23.73
2023-05-21T08:02:57.839Z,23.88
2023-05-21T08:05:26.321Z,23.99
2023-05-21T08:07:53.455Z,24.16
2023-05-21T08:10:21.478Z,24.36
2023-05-21T08:12:51.290Z,24.51
2023-05-21T08:15:19.140Z,24.63
2023-05-21T08:17:46.709Z,24.80
2023-05-21T08:20:15.451Z,24.89
2023-05-21T08:22:44.791Z,24.95
2023-05-21T08:25:13.770Z,24.91
2023-05-21T08:27:41.258Z,24.96
2023-05-21T08:30:11.757Z,25.07
2023-05-21T08:32:39.179Z,25.07
2023-05-21T08:35:07.638Z,25.21
2023-05-21T08:37:50.504Z,25.32
2023-05-21T08:40:25.354Z,25.44
2023-05-21T08:42:52.678Z,25.53
2023-05-21T08:45:38.549Z,25.67
2023-05-21T08:48:07.203Z,25.73
2023-05-21T08:50:35.933Z,25.84
2023-05-21T08:53:19.918Z,25.88
2023-05-21T08:55:56.436Z,25.91
2023-05-21T08:58:25.796Z,25.90
2023-05-21T09:00:55.436Z,25.86
2023-05-21T09:03:26.942Z,25.86
2023-05-21T09:05:55.403Z,25.91
2023-05-21T09:08:32.956Z,25.89
2023-05-21T09:11:03.959Z,25.80
2023-05-21T09:13:46.640Z,25.61
2023-05-21T09:16:21.893Z,25.55
2023-05-21T09:18:49.748Z,25.56
2023-05-21T09:21:31.823Z,25.54
2023-05-21T09:24:04.246Z,25.56
2023-05-21T09:26:31.560Z,25.63
2023-05-21T09:29:04.451Z,25.77
2023-05-21T09:31:33.178Z,25.83
2023-05-21T09:34:01.448Z,25.91
2023-05-21T09:36:29.828Z,26.03
2023-05-21T09:38:58.657Z,26.11
2023-05-21T09:41:34.065Z,26.27
2023-05-21T09:44:02.967Z,26.42
2023-05-21T09:46:42.793Z,26.48
2023-05-21T09:49:26.801Z,26.51
2023-05-21T09:51:59.412Z,26.53
2023-05-21T09:54:31.718Z,26.52
2023-05-21T09:57:02.689Z,26.59
2023-05-21T09:59:37.445Z,26.70
2023-05-21T10:02:16.790Z,26.90
2023-05-21T10:04:48.115Z,27.14
2023-05-21T10:07:26.145Z,27.30
2023-05-21T10:09:56.330Z,27.38
2023-05-21T10:12:27.607Z,27.61
2023-05-21T10:15:04.175Z,27.69
2023-05-21T10:17:33.010Z,27.74
2023-05-21T10:20:03.462Z,27.83
2023-05-21T10:22:31.478Z,27.88
2023-05-21T10:25:02.578Z,27.84
2023-05-21T10:27:32.333Z,27.75
2023-05-21T10:30:01.778Z,27.64
2023-05-21T10:32:31.507Z,27.67
2023-05-21T10:35:01.495Z,27.65
2023-05-21T10:37:29.531Z,27.57
2023-05-21T10:39:57.327Z,27.66
2023-05-21T10:42:24.451Z,27.76
2023-05-21T10:45:01.349Z,27.86
2023-05-21T10:47:42.783Z,27.81
2023-05-21T10:50:38.479Z,27.90
2023-05-21T10:53:24.822Z,28.12
2023-05-21T10:56:22.255Z,28.35
2023-05-21T10:59:26.973Z,28.54
2023-05-21T11:01:55.550Z,28.61
2023-05-21T11:04:29.311Z,28.76
2023-05-21T11:06:58.920Z,28.96
2023-05-21T11:09:27.223Z,29.10
2023-05-21T11:11:59.153Z,29.03
2023-05-21T11:14:39.556Z,28.88
2023-05-21T11:17:06.990Z,28.83
2023-05-21T11:19:35.160Z,28.86
2023-05-21T11:22:06.798Z,28.89
2023-05-21T11:24:39.946Z,29.04
2023-05-21T11:27:07.283Z,29.08
2023-05-21T11:29:40.899Z,29.12
2023-05-21T11:32:13.968Z,29.30
2023-05-21T11:34:46.673Z,29.47
2023-05-21T11:37:18.540Z,29.64
2023-05-21T11:39:52.186Z,29.65
2023-05-21T11:42:40.093Z,29.55
2023-05-21T11:45:11.985Z,29.58
2023-05-21T11:48:03.400Z,29.69
2023-05-21T11:50:32.447Z,30.00
2023-05-21T11:53:00.854Z,30.11
2023-05-21T11:55:28.143Z,30.20
2023-05-21T11:57:55.890Z,30.11
2023-05-21T12:00:23.368Z,29.82
2023-05-21T12:03:01.257Z,29.77
2023-05-21T12:05:31.831Z,29.82
2023-05-21T12:08:09.999Z,30.00
2023-05-21T12:10:58.604Z,30.23
2023-05-21T12:13:26.499Z,30.41
2023-05-21T12:15:54.872Z,30.33
2023-05-21T12:18:27.547Z,30.19
2023-05-21T12:20:55.488Z,30.29
2023-05-21T12:23:26.401Z,30.50
2023-05-21T12:26:02.008Z,30.57
2023-05-21T12:28:29.815Z,30.46
2023-05-21T12:30:56.949Z,30.41
2023-05-21T12:33:26.197Z,30.42
2023-05-21T12:35:53.307Z,30.48
2023-05-21T12:38:20.903Z,30.47
2023-05-21T12:40:47.991Z,30.38
2023-05-21T12:43:16.439Z,30.26
2023-05-21T12:45:44.636Z,30.07
2023-05-21T12:48:12.840Z,29.83
2023-05-21T12:50:55.807Z,29.78
2023-05-21T12:53:38.475Z,29.76
2023-05-21T12:56:11.862Z,29.97
2023-05-21T12:58:39.368Z,29.97
2023-05-21T13:01:11.630Z,29.83
2023-05-21T13:03:41.548Z,29.73
2023-05-21T13:06:09.320Z,29.73
2023-05-21T13:08:36.650Z,29.55
2023-05-21T13:11:04.640Z,29.47
2023-05-21T13:13:31.568Z,29.81
2023-05-21T13:16:00.860Z,30.30
2023-05-21T13:18:28.178Z,30.74
2023-05-21T13:20:55.197Z,30.87
2023-05-21T13:23:23.440Z,30.71
2023-05-21T13:25:50.901Z,30.30
2023-05-21T13:28:18.051Z,29.85
2023-05-21T13:30:45.492Z,29.79
2023-05-21T13:33:13.454Z,30.23
2023-05-21T13:35:41.154Z,30.70
2023-05-21T13:38:08.673Z,30.87
2023-05-21T13:40:38.106Z,31.22
2023-05-21T13:43:25.613Z,31.64
2023-05-21T13:45:52.870Z,31.67
2023-05-21T13:48:20.300Z,31.68
2023-05-21T13:50:48.475Z,31.85
2023-05-21T13:53:15.748Z,31.96
2023-05-21T13:55:42.721Z,31.89
2023-05-21T13:58:09.999Z,31.89
2023-05-21T14:00:37.213Z,31.92
2023-05-21T14:03:06.855Z,31.66
2023-05-21T14:05:34.530Z,31.30
2023-05-21T14:08:01.906Z,30.91
2023-05-21T14:10:28.896Z,30.48
2023-05-21T14:13:04.293Z,30.37
2023-05-21T14:15:39.052Z,30.55
2023-05-21T14:18:08.261Z,30.80
2023-05-21T14:20:35.883Z,31.00
2023-05-21T14:23:04.706Z,31.24
2023-05-21T14:25:36.586Z,31.50
2023-05-21T14:28:13.144Z,31.84
2023-05-21T14:30:43.830Z,32.14
2023-05-21T14:33:11.893Z,32.26
2023-05-21T14:35:39.479Z,32.32
2023-05-21T14:38:06.729Z,32.24
2023-05-21T14:40:33.787Z,31.82
2023-05-21T14:43:00.881Z,31.35
2023-05-21T14:45:33.228Z,30.89
2023-05-21T14:48:00.520Z,30.46
2023-05-21T14:50:30.218Z,30.25
2023-05-21T14:52:57.368Z,29.99
2023-05-21T14:55:24.605Z,29.75
2023-05-21T14:57:56.391Z,29.64
2023-05-21T15:00:25.215Z,29.41
2023-05-21T15:02:54.031Z,29.29
2023-05-21T15:05:23.130Z,29.25
2023-05-21T15:07:50.478Z,29.14
2023-05-21T15:10:18.740Z,29.08
2023-05-21T15:12:46.430Z,29.04
2023-05-21T15:15:14.758Z,29.06
2023-05-21T15:17:41.920Z,29.04
2023-05-21T15:20:10.997Z,29.01
2023-05-21T15:22:38.803Z,28.97
2023-05-21T15:25:15.066Z,28.97
2023-05-21T15:27:44.624Z,28.91
2023-05-21T15:30:12.446Z,28.83
2023-05-21T15:32:48.696Z,28.72
2023-05-21T15:35:19.516Z,28.68
2023-05-21T15:37:49.196Z,28.59
2023-05-21T15:40:20.153Z,28.52
2023-05-21T15:42:53.464Z,28.54
2023-05-21T15:45:36.085Z,28.53
2023-05-21T15:48:07.428Z,28.45
2023-05-21T15:50:38.544Z,28.41
2023-05-21T15:53:05.833Z,28.32
2023-05-21T15:55:33.872Z,28.35
2023-05-21T15:58:02.572Z,28.33
2023-05-21T16:00:30.049Z,28.27
2023-05-21T16:03:06.821Z,28.14
2023-05-21T16:05:56.388Z,28.00
2023-05-21T16:08:25.035Z,27.92
2023-05-21T16:10:52.130Z,27.85
2023-05-21T16:13:21.755Z,27.86
2023-05-21T16:15:50.236Z,27.76
2023-05-21T16:21:23.999Z,27.52
2023-05-21T16:23:52.599Z,27.42
2023-05-21T16:26:21.792Z,27.35
2023-05-21T16:28:49.259Z,27.33
2023-05-21T16:31:16.663Z,27.35
2023-05-21T16:33:45.132Z,27.36
2023-05-21T16:36:12.456Z,27.36
2023-05-21T16:38:39.692Z,27.41
2023-05-21T16:41:09.927Z,27.43
2023-05-21T16:43:38.509Z,27.38
2023-05-21T16:46:08.679Z,27.33
2023-05-21T16:48:38.050Z,27.36
2023-05-21T16:51:09.098Z,27.32
2023-05-21T16:53:36.472Z,27.23
2023-05-21T16:56:03.703Z,27.11
2023-05-21T16:58:36.298Z,27.02
2023-05-21T17:01:04.217Z,27.02
2023-05-21T17:03:32.773Z,26.95
2023-05-21T17:06:00.139Z,26.90
2023-05-21T17:08:28.282Z,26.90
2023-05-21T17:10:55.829Z,26.87
2023-05-21T17:13:23.559Z,26.85
2023-05-21T17:15:51.747Z,26.84
2023-05-21T17:18:19.088Z,26.81
2023-05-21T17:20:46.472Z,26.83
2023-05-21T17:23:16.461Z,26.78
2023-05-21T17:25:43.818Z,26.70
2023-05-21T17:28:11.515Z,26.62
2023-05-21T17:30:39.351Z,26.56
2023-05-21T17:33:08.003Z,26.55
2023-05-21T17:35:35.624Z,26.49
2023-05-21T17:38:03.241Z,26.42
2023-05-21T17:40:30.497Z,26.36
2023-05-21T17:42:58.064Z,26.29
2023-05-21T17:45:26.339Z,26.21
2023-05-21T17:47:53.624Z,26.19
2023-05-21T17:50:20.980Z,26.19
2023-05-21T17:52:48.324Z,26.14
2023-05-21T17:55:15.554Z,26.07
2023-05-21T17:57:42.850Z,26.00
2023-05-21T18:00:10.896Z,25.95
2023-05-21T18:02:40.980Z,25.92
2023-05-21T18:05:08.908Z,25.88
2023-05-21T18:07:37.389Z,25.80
2023-05-21T18:10:09.371Z,25.73
2023-05-21T18:12:36.582Z,25.68
2023-05-21T18:15:05.139Z,25.64
2023-05-21T18:17:33.163Z,25.59
2023-05-21T18:20:00.394Z,25.56
2023-05-21T18:22:27.375Z,25.45
2023-05-21T18:24:57.079Z,25.43
2023-05-21T18:27:24.207Z,25.38
2023-05-21T18:29:52.668Z,25.34
2023-05-21T18:32:20.418Z,25.28
2023-05-21T18:34:48.749Z,25.21
2023-05-21T18:37:17.312Z,25.14
2023-05-21T18:39:44.701Z,25.12
2023-05-21T18:42:13.971Z,25.06
2023-05-21T18:44:41.788Z,25.04
2023-05-21T18:47:09.403Z,24.99
2023-05-21T18:49:36.686Z,24.96
2023-05-21T18:52:08.015Z,24.88
2023-05-21T18:54:35.336Z,24.83
2023-05-21T18:57:02.653Z,24.75
2023-05-21T18:59:31.758Z,24.66
2023-05-21T19:01:59.277Z,24.64
2023-05-21T19:04:31.309Z,24.59
2023-05-21T19:06:58.473Z,24.53
2023-05-21T19:09:25.842Z,24.46
2023-05-21T19:11:53.039Z,24.43
2023-05-21T19:14:21.256Z,24.34
2023-05-21T19:16:48.402Z,24.30
2023-05-21T19:19:15.502Z,24.26
2023-05-21T19:21:44.035Z,24.23
2023-05-21T19:24:11.276Z,24.18
2023-05-21T19:26:38.540Z,24.17
2023-05-21T19:29:05.976Z,24.13
2023-05-21T19:31:33.690Z,24.11
2023-05-21T19:34:01.015Z,24.07
2023-05-21T19:36:34.983Z,23.99
2023-05-21T19:39:10.986Z,23.96
2023-05-21T19:41:38.189Z,23.94
2023-05-21T19:44:05.312Z,23.91
2023-05-21T19:46:32.617Z,23.87
2023-05-21T19:48:59.785Z,23.77
2023-05-21T19:51:27.330Z,23.73
2023-05-21T19:53:55.720Z,23.71
2023-05-21T19:56:23.069Z,23.64
2023-05-21T19:58:51.355Z,23.61
2023-05-21T20:01:19.078Z,23.58
2023-05-21T20:03:46.847Z,23.56
2023-05-21T20:06:20.159Z,23.56
2023-05-21T20:08:49.486Z,23.54
2023-05-21T20:11:16.613Z,23.46
2023-05-21T20:13:53.631Z,23.44
2023-05-21T20:16:21.002Z,23.40
2023-05-21T20:18:48.134Z,23.35
2023-05-21T20:21:18.250Z,23.35
2023-05-21T20:23:47.796Z,23.32
2023-05-21T20:26:19.384Z,23.23
2023-05-21T20:28:46.452Z,23.16
2023-05-21T20:31:13.881Z,23.17
2023-05-21T20:33:42.065Z,23.15
2023-05-21T20:36:09.491Z,23.15
2023-05-21T20:38:38.590Z,23.13
2023-05-21T20:41:06.178Z,23.08
2023-05-21T20:43:38.916Z,23.06
2023-05-21T20:46:06.542Z,23.01
2023-05-21T20:48:35.474Z,23.03
2023-05-21T20:51:04.779Z,22.97
2023-05-21T20:53:32.314Z,22.94
2023-05-21T20:56:01.864Z,22.92
2023-05-21T20:58:29.929Z,22.86
2023-05-21T21:00:58.429Z,22.78
2023-05-21T21:03:25.574Z,22.74
2023-05-21T21:05:53.198Z,22.66
2023-05-21T21:08:25.156Z,22.61
2023-05-21T21:10:52.200Z,22.56
2023-05-21T21:13:19.429Z,22.54
2023-05-21T21:15:46.575Z,22.47
2023-05-21T21:18:14.611Z,22.43
2023-05-21T21:20:42.884Z,22.39
2023-05-21T21:23:16.845Z,22.37
2023-05-21T21:25:44.193Z,22.35
2023-05-21T21:28:11.286Z,22.31
2023-05-21T21:30:41.330Z,22.27
2023-05-21T21:33:09.113Z,22.25
2023-05-21T21:35:36.305Z,22.22
2023-05-21T21:38:05.444Z,22.19
2023-05-21T21:40:32.489Z,22.15
2023-05-21T21:42:59.657Z,22.13
2023-05-21T21:45:27.093Z,22.10
2023-05-21T21:47:54.562Z,22.09
2023-05-21T21:50:21.796Z,22.06
2023-05-21T21:52:50.396Z,22.01
2023-05-21T21:55:19.274Z,21.95
2023-05-21T21:57:46.716Z,21.91
2023-05-21T22:00:19.949Z,21.87
2023-05-21T22:02:47.117Z,21.84
2023-05-21T22:05:17.226Z,21.81
2023-05-21T22:07:48.077Z,21.75
2023-05-21T22:10:19.557Z,21.71
2023-05-21T22:12:49.525Z,21.68
2023-05-21T22:15:23.128Z,21.64
2023-05-21T22:17:50.471Z,21.59
2023-05-21T22:20:18.664Z,21.55
2023-05-21T22:22:46.390Z,21.54
2023-05-21T22:25:14.660Z,21.53
2023-05-21T22:27:43.312Z,21.53
2023-05-21T22:30:11.135Z,21.50
2023-05-21T22:32:38.560Z,21.51
2023-05-21T22:35:06.475Z,21.54
2023-05-21T22:37:33.623Z,21.53
2023-05-21T22:40:00.639Z,21.49
2023-05-21T22:42:27.807Z,21.47
2023-05-21T22:44:56.472Z,21.47
2023-05-21T22:47:24.006Z,21.43
2023-05-21T22:49:53.521Z,21.44
2023-05-21T22:52:24.613Z,21.43
2023-05-21T22:54:52.919Z,21.39
2023-05-21T22:57:20.527Z,21.40
2023-05-21T22:59:47.586Z,21.36
2023-05-21T23:02:15.835Z,21.36
2023-05-21T23:04:44.644Z,21.35
2023-05-21T23:07:12.680Z,21.35
2023-05-21T23:09:39.709Z,21.34
2023-05-21T23:12:08.152Z,21.35
2023-05-21T23:14:35.186Z,21.36
2023-05-21T23:17:02.593Z,21.35
2023-05-21T23:19:29.821Z,21.35
2023-05-21T23:21:57.286Z,21.33
2023-05-21T23:24:25.392Z,21.32
2023-05-21T23:26:52.698Z,21.32
2023-05-21T23:29:19.878Z,21.32
2023-05-21T23:31:47.308Z,21.29
2023-05-21T23:34:14.677Z,21.27
2023-05-21T23:36:41.717Z,21.23
2023-05-21T23:39:09.523Z,21.21
2023-05-21T23:41:38.067Z,21.21
2023-05-21T23:44:05.271Z,21.24
2023-05-21T23:46:32.311Z,21.22
2023-05-21T23:48:59.309Z,21.22
2023-05-21T23:51:26.642Z,21.22
2023-05-21T23:53:54.230Z,21.21
2023-05-21T23:56:22.403Z,21.18
2023-05-21T23:58:50.276Z,21.14
